This is the latest recevied weather packets stored in our database for station/object KQ4JKJ. If no packets are shown the sender has not sent any weather packets the latest 10 day(s).
| Time | Temp. | Humidity | Pressure | Rain* | Wind** | Luminosity | Snow |
|---|---|---|---|---|---|---|---|
| 1777912362 | 24.44° C | 65% | 1012 hPa | 0 mm | - | 181 W/m² | - |
| 1777912058 | 25.56° C | 63% | 1011.9 hPa | 0 mm | - | 181 W/m² | - |
| 1777911754 | 25.56° C | 63% | 1011.8 hPa | 0 mm | - | 246 W/m² | - |
| 1777911451 | 25.56° C | 61% | 1011.9 hPa | 0 mm | - | 466 W/m² | - |
| 1777911148 | 26.11° C | 61% | 1011.8 hPa | 0 mm | - | 314 W/m² | - |
| 1777910846 | 26.67° C | 59% | 1011.6 hPa | 0 mm | - | 513 W/m² | - |
| 1777910542 | 26.67° C | 59% | 1011.9 hPa | 0 mm | - | 850 W/m² | - |
| 1777910240 | 25.56° C | 61% | 1011.8 hPa | 0 mm | - | 701 W/m² | - |
| 1777909936 | 26.11° C | 62% | 1011.7 hPa | 0 mm | - | 767 W/m² | - |
| 1777909633 | 25° C | 63% | 1011.8 hPa | 0 mm | - | 759 W/m² | - |
| 1777909331 | 25° C | 63% | 1011.9 hPa | 0 mm | - | 642 W/m² | - |
| 1777909028 | 25° C | 64% | 1011.9 hPa | 0 mm | - | 350 W/m² | - |
| 1777908726 | 25° C | 64% | 1012.1 hPa | 0 mm | - | 429 W/m² | - |
| 1777908423 | 25° C | 65% | 1012 hPa | 0 mm | - | 299 W/m² | - |
| 1777908119 | 25.56° C | 63% | 1012.1 hPa | 0 mm | - | 282 W/m² | - |
| 1777907816 | 24.44° C | 65% | 1011.9 hPa | 0 mm | - | 481 W/m² | - |
| 1777907516 | 25° C | 64% | 1011.9 hPa | 0 mm | - | 261 W/m² | - |
| 1777907213 | 25.56° C | 65% | 1011.9 hPa | 0 mm | - | 378 W/m² | - |
| 1777906910 | 25° C | 64% | 1012.1 hPa | 0 mm | - | 601 W/m² | - |
| 1777906607 | 25° C | 63% | 1012.1 hPa | 0 mm | - | 763 W/m² | - |
| 1777906302 | 26.11° C | 63% | 1012.1 hPa | 0 mm | - | 682 W/m² | - |
| 1777906000 | 25° C | 64% | 1012.1 hPa | 0 mm | - | 628 W/m² | - |
| 1777905696 | 25° C | 65% | 1012 hPa | 0 mm | - | 296 W/m² | - |
| 1777905393 | 26.11° C | 63% | 1011.9 hPa | 0 mm | - | 288 W/m² | - |
| 1777905091 | 26.67° C | 60% | 1011.9 hPa | 0 mm | - | 626 W/m² | - |
* Rain latest hour (hover to see other rain measurements)
** Current wind speed in m/s (hover to see current wind gust speed)